sensor_id;sensor_type;location;lat;lon;timestamp;P1;durP1;ratioP1;P2;durP2;ratioP2
52530;SDS011;38441;52.894;6.040;2023-05-15T05:19:04;21.63;;;15.85;;
52530;SDS011;38441;52.894;6.040;2023-05-15T05:21:43;20.23;;;15.05;;
52530;SDS011;38441;52.894;6.040;2023-05-15T05:24:09;20.02;;;15.13;;
52530;SDS011;38441;52.894;6.040;2023-05-15T05:37:23;23.02;;;16.83;;
52530;SDS011;38441;52.894;6.040;2023-05-15T05:50:15;21.35;;;15.18;;
52530;SDS011;38441;52.894;6.040;2023-05-15T05:52:46;22.52;;;16.17;;
52530;SDS011;38441;52.894;6.040;2023-05-15T05:55:17;18.55;;;15.15;;
52530;SDS011;38441;52.894;6.040;2023-05-15T10:20:31;15.18;;;11.68;;
52530;SDS011;38441;52.894;6.040;2023-05-15T10:23:03;13.35;;;11.48;;
52530;SDS011;38441;52.894;6.040;2023-05-15T10:28:28;13.23;;;10.88;;
52530;SDS011;38441;52.894;6.040;2023-05-15T10:30:58;13.98;;;10.65;;
52530;SDS011;38441;52.894;6.040;2023-05-15T10:33:26;12.25;;;10.95;;
52530;SDS011;38441;52.894;6.040;2023-05-15T10:35:55;12.48;;;10.57;;
52530;SDS011;38441;52.894;6.040;2023-05-15T10:38:24;12.48;;;10.38;;
52530;SDS011;38441;52.894;6.040;2023-05-15T10:40:51;12.57;;;9.98;;
52530;SDS011;38441;52.894;6.040;2023-05-15T10:43:19;14.32;;;9.18;;
52530;SDS011;38441;52.894;6.040;2023-05-15T10:45:47;14.38;;;9.65;;
52530;SDS011;38441;52.894;6.040;2023-05-15T22:00:47;10.30;;;2.20;;
52530;SDS011;38441;52.894;6.040;2023-05-15T22:03:13;13.95;;;2.15;;
52530;SDS011;38441;52.894;6.040;2023-05-15T22:05:38;10.93;;;2.97;;
52530;SDS011;38441;52.894;6.040;2023-05-15T22:08:04;8.07;;;1.70;;
52530;SDS011;38441;52.894;6.040;2023-05-15T22:10:30;11.05;;;2.00;;
52530;SDS011;38441;52.894;6.040;2023-05-15T22:12:56;9.55;;;1.67;;
52530;SDS011;38441;52.894;6.040;2023-05-15T22:15:23;11.10;;;2.20;;
52530;SDS011;38441;52.894;6.040;2023-05-15T22:17:48;15.00;;;2.03;;
52530;SDS011;38441;52.894;6.040;2023-05-15T22:20:17;15.57;;;2.25;;
52530;SDS011;38441;52.894;6.040;2023-05-15T22:22:43;17.27;;;3.05;;
52530;SDS011;38441;52.894;6.040;2023-05-15T22:25:08;14.25;;;1.90;;
52530;SDS011;38441;52.894;6.040;2023-05-15T22:27:34;12.38;;;2.97;;
52530;SDS011;38441;52.894;6.040;2023-05-15T22:30:01;11.55;;;2.25;;
52530;SDS011;38441;52.894;6.040;2023-05-15T22:32:26;11.50;;;2.00;;
52530;SDS011;38441;52.894;6.040;2023-05-15T22:34:52;11.05;;;1.92;;
52530;SDS011;38441;52.894;6.040;2023-05-15T22:37:19;9.48;;;1.75;;
52530;SDS011;38441;52.894;6.040;2023-05-15T22:39:44;10.57;;;1.90;;
52530;SDS011;38441;52.894;6.040;2023-05-15T22:42:10;8.82;;;1.60;;
52530;SDS011;38441;52.894;6.040;2023-05-15T22:44:36;10.95;;;2.17;;
52530;SDS011;38441;52.894;6.040;2023-05-15T22:47:02;16.42;;;2.13;;
52530;SDS011;38441;52.894;6.040;2023-05-15T22:49:28;10.05;;;1.42;;
52530;SDS011;38441;52.894;6.040;2023-05-15T22:51:54;9.75;;;1.92;;
52530;SDS011;38441;52.894;6.040;2023-05-15T22:57:44;11.25;;;1.90;;
52530;SDS011;38441;52.894;6.040;2023-05-15T23:00:10;10.77;;;2.30;;
52530;SDS011;38441;52.894;6.040;2023-05-15T23:02:36;10.82;;;2.15;;
52530;SDS011;38441;52.894;6.040;2023-05-15T23:05:02;10.20;;;1.90;;
52530;SDS011;38441;52.894;6.040;2023-05-15T23:11:10;13.20;;;2.47;;
52530;SDS011;38441;52.894;6.040;2023-05-15T23:13:36;12.25;;;2.03;;
52530;SDS011;38441;52.894;6.040;2023-05-15T23:16:02;12.32;;;2.95;;
52530;SDS011;38441;52.894;6.040;2023-05-15T23:18:28;15.70;;;2.45;;
52530;SDS011;38441;52.894;6.040;2023-05-15T23:20:54;8.95;;;1.40;;
52530;SDS011;38441;52.894;6.040;2023-05-15T23:23:20;10.43;;;1.35;;
52530;SDS011;38441;52.894;6.040;2023-05-15T23:25:46;11.57;;;1.75;;
52530;SDS011;38441;52.894;6.040;2023-05-15T23:28:12;10.02;;;1.92;;
52530;SDS011;38441;52.894;6.040;2023-05-15T23:30:37;10.20;;;1.85;;
52530;SDS011;38441;52.894;6.040;2023-05-15T23:33:03;9.35;;;1.77;;
52530;SDS011;38441;52.894;6.040;2023-05-15T23:35:29;10.45;;;2.03;;
52530;SDS011;38441;52.894;6.040;2023-05-15T23:37:55;13.95;;;2.40;;
52530;SDS011;38441;52.894;6.040;2023-05-15T23:40:21;12.63;;;2.20;;
52530;SDS011;38441;52.894;6.040;2023-05-15T23:42:46;8.45;;;1.80;;
52530;SDS011;38441;52.894;6.040;2023-05-15T23:45:12;8.95;;;1.60;;
52530;SDS011;38441;52.894;6.040;2023-05-15T23:47:39;11.02;;;1.70;;
52530;SDS011;38441;52.894;6.040;2023-05-15T23:50:05;10.73;;;1.98;;
52530;SDS011;38441;52.894;6.040;2023-05-15T23:52:32;13.18;;;1.80;;
52530;SDS011;38441;52.894;6.040;2023-05-15T23:54:58;7.95;;;1.52;;
52530;SDS011;38441;52.894;6.040;2023-05-15T23:57:24;10.45;;;1.55;;
52530;SDS011;38441;52.894;6.040;2023-05-15T23:59:50;12.27;;;1.75;;
